createdAt,value
2023-05-24T00:04:49.800Z,0.90
2023-05-24T00:15:11.344Z,1.10
2023-05-24T00:25:32.459Z,1.67
2023-05-24T00:35:56.920Z,0.70
2023-05-24T00:46:21.033Z,1.10
2023-05-24T00:56:45.352Z,1.63
2023-05-24T01:07:31.190Z,1.00
2023-05-24T01:18:06.223Z,2.60
2023-05-24T01:28:27.917Z,1.33
2023-05-24T01:38:49.743Z,1.40
2023-05-24T01:49:30.261Z,1.83
2023-05-24T01:59:53.406Z,1.40
2023-05-24T02:10:14.569Z,2.63
2023-05-24T02:20:38.753Z,2.10
2023-05-24T02:31:00.125Z,1.55
2023-05-24T02:41:22.433Z,1.90
2023-05-24T02:51:43.677Z,1.95
2023-05-24T03:02:05.622Z,1.60
2023-05-24T03:12:27.480Z,2.75
2023-05-24T03:22:48.806Z,2.30
2023-05-24T03:33:10.367Z,2.55
2023-05-24T03:43:31.633Z,2.08
2023-05-24T04:04:20.197Z,1.67
2023-05-24T04:14:41.721Z,2.65
2023-05-24T04:25:04.435Z,3.15
2023-05-24T04:35:26.590Z,3.92
2023-05-24T04:45:48.662Z,2.38
2023-05-24T04:56:10.146Z,3.05
2023-05-24T05:06:32.209Z,2.42
2023-05-24T05:16:53.475Z,3.97
2023-05-24T05:27:14.602Z,4.72
2023-05-24T05:37:36.126Z,4.53
2023-05-24T05:47:57.278Z,5.00
2023-05-24T05:58:18.806Z,5.03
2023-05-24T06:08:41.105Z,6.20
2023-05-24T06:19:06.381Z,3.13
2023-05-24T06:39:49.308Z,6.05
2023-05-24T06:50:10.681Z,3.42
2023-05-24T07:00:32.369Z,5.68
2023-05-24T07:10:54.476Z,5.97
2023-05-24T07:21:16.149Z,6.80
2023-05-24T07:31:38.422Z,5.20
2023-05-24T07:41:59.584Z,5.55
2023-05-24T07:52:21.989Z,5.03
2023-05-24T08:02:44.495Z,9.75
2023-05-24T08:13:06.302Z,4.32
2023-05-24T08:23:30.182Z,5.97
2023-05-24T08:33:51.567Z,5.00
2023-05-24T08:44:13.472Z,6.10
2023-05-24T08:54:38.042Z,6.95
2023-05-24T09:05:00.431Z,6.97
2023-05-24T09:15:21.606Z,7.40
2023-05-24T09:25:47.002Z,5.60
2023-05-24T09:36:08.972Z,6.88
2023-05-24T09:46:30.332Z,5.30
2023-05-24T09:56:51.813Z,7.72
2023-05-24T10:07:13.030Z,8.23
2023-05-24T10:17:34.344Z,8.18
2023-05-24T10:28:07.961Z,6.40
2023-05-24T10:38:30.005Z,5.25
2023-05-24T10:49:01.367Z,8.00
2023-05-24T10:59:38.344Z,9.25
2023-05-24T11:10:07.318Z,8.63
2023-05-24T11:20:28.479Z,6.35
2023-05-24T11:30:51.100Z,5.82
2023-05-24T11:41:12.592Z,6.30
2023-05-24T11:51:36.055Z,6.05
2023-05-24T12:02:02.067Z,8.95
2023-05-24T12:12:30.496Z,11.48
2023-05-24T12:22:56.332Z,6.07
2023-05-24T12:33:19.722Z,6.63
2023-05-24T12:43:41.096Z,4.93
2023-05-24T12:54:05.044Z,7.63
2023-05-24T13:04:31.888Z,7.63
2023-05-24T13:14:54.321Z,5.40
2023-05-24T13:25:16.948Z,7.03
2023-05-24T13:35:38.448Z,4.75
2023-05-24T13:46:00.027Z,4.55
2023-05-24T13:56:22.567Z,5.82
2023-05-24T14:06:43.769Z,5.85
2023-05-24T14:17:05.070Z,5.28
2023-05-24T14:27:26.645Z,4.80
2023-05-24T14:37:47.971Z,5.65
2023-05-24T14:48:13.495Z,5.10
2023-05-24T14:58:34.922Z,6.65
2023-05-24T15:08:56.798Z,6.50
2023-05-24T15:19:18.127Z,4.97
2023-05-24T15:29:39.798Z,4.78
2023-05-24T15:40:01.026Z,5.28
2023-05-24T15:50:31.640Z,8.88
2023-05-24T16:00:57.614Z,4.07
2023-05-24T16:11:21.553Z,4.22
2023-05-24T16:21:43.418Z,4.23
2023-05-24T16:32:04.844Z,7.85
2023-05-24T16:42:26.721Z,4.70
2023-05-24T16:52:48.647Z,5.75
2023-05-24T17:03:10.536Z,6.15
2023-05-24T17:13:32.277Z,6.90
2023-05-24T17:23:53.902Z,6.63
2023-05-24T17:34:16.802Z,7.00
2023-05-24T17:44:38.051Z,4.50
2023-05-24T17:54:59.445Z,6.72
2023-05-24T18:05:20.723Z,6.13
2023-05-24T18:15:44.394Z,6.50
2023-05-24T18:26:10.567Z,5.35
2023-05-24T18:36:33.300Z,7.63
2023-05-24T18:46:56.418Z,8.30
2023-05-24T18:57:17.719Z,6.63
2023-05-24T19:07:39.422Z,6.20
2023-05-24T19:18:02.018Z,6.75
2023-05-24T19:28:24.341Z,4.07
2023-05-24T19:38:45.301Z,7.82
2023-05-24T19:49:06.484Z,3.20
2023-05-24T19:59:28.177Z,6.78
2023-05-24T20:09:50.139Z,4.13
2023-05-24T20:20:12.119Z,6.40
2023-05-24T20:30:34.017Z,5.75
2023-05-24T20:40:55.852Z,5.00
2023-05-24T20:51:17.048Z,5.60
2023-05-24T21:01:38.628Z,4.65
2023-05-24T21:12:00.067Z,3.63
2023-05-24T21:22:21.597Z,6.75
2023-05-24T21:32:43.091Z,6.63
2023-05-24T21:43:05.510Z,6.40
2023-05-24T21:53:26.691Z,5.63
2023-05-24T22:03:47.935Z,3.95
2023-05-24T22:14:09.194Z,5.22
2023-05-24T22:24:31.045Z,7.15
2023-05-24T22:34:52.622Z,5.78
2023-05-24T22:45:14.314Z,4.70
2023-05-24T22:55:35.852Z,5.22
2023-05-24T23:06:04.106Z,6.55
2023-05-24T23:16:29.022Z,4.55
2023-05-24T23:26:50.674Z,6.00
2023-05-24T23:37:12.116Z,7.70
2023-05-24T23:47:33.444Z,5.18
2023-05-24T23:57:54.784Z,5.10
